Time;durP1;ratioP1;P1;durP2;ratioP2;P2;SDS_P1;SDS_P2;PMS_P1;PMS_P2;Temp;Humidity;BMP_temperature;BMP_pressure;BME280_temperature;BME280_humidity;BME280_pressure;Samples;Min_cycle;Max_cycle;Signal;HPM_P1;HPM_P2
2024/02/17 00:01:38;;;;;;;23.23;16.70;;;11.80;99.90;;;;;;5055287;28;20818;-56
2024/02/17 00:04:05;;;;;;;23.10;16.73;;;11.80;99.90;;;;;;5055507;28;20451;-56
2024/02/17 00:06:33;;;;;;;23.23;15.40;;;11.80;99.90;;;;;;5055301;28;20445;-57
2024/02/17 00:09:00;;;;;;;23.80;16.83;;;11.70;99.90;;;;;;5055595;28;20541;-56
2024/02/17 00:11:27;;;;;;;26.27;18.90;;;11.70;99.90;;;;;;5054870;28;20454;-56
2024/02/17 00:13:53;;;;;;;25.47;18.50;;;11.60;99.90;;;;;;5054922;28;20547;-56
2024/02/17 00:16:20;;;;;;;25.60;18.57;;;11.60;99.90;;;;;;5054902;28;20858;-56
2024/02/17 00:18:47;;;;;;;26.77;18.60;;;11.60;99.90;;;;;;5054803;28;20823;-56
2024/02/17 00:21:14;;;;;;;22.77;17.97;;;11.60;99.90;;;;;;5054940;28;20464;-56
2024/02/17 00:23:42;;;;;;;27.77;19.20;;;11.50;99.90;;;;;;5054940;28;20441;-56
2024/02/17 00:26:09;;;;;;;27.20;18.90;;;11.50;99.90;;;;;;5054546;28;20445;-57
2024/02/17 00:28:36;;;;;;;29.20;20.30;;;11.50;99.90;;;;;;5054736;28;20823;-56
2024/02/17 00:31:02;;;;;;;25.73;19.33;;;11.50;99.90;;;;;;5054763;28;20445;-56
2024/02/17 00:33:29;;;;;;;25.70;18.93;;;11.50;99.90;;;;;;5054281;28;21027;-56
2024/02/17 00:35:57;;;;;;;30.90;20.20;;;11.50;99.90;;;;;;5054323;28;20446;-56
2024/02/17 00:38:23;;;;;;;25.87;19.80;;;11.50;99.90;;;;;;5054379;28;20465;-57
2024/02/17 00:40:52;;;;;;;25.63;19.70;;;11.50;99.90;;;;;;5054483;28;20442;-56
2024/02/17 00:43:18;;;;;;;24.53;19.50;;;11.50;99.90;;;;;;5054131;28;20940;-56
2024/02/17 00:45:48;;;;;;;24.80;18.50;;;11.60;99.90;;;;;;5054389;28;20445;-57
2024/02/17 00:48:15;;;;;;;26.60;19.63;;;11.50;99.90;;;;;;5054071;28;20944;-57
2024/02/17 00:50:42;;;;;;;25.80;19.57;;;11.60;99.90;;;;;;5054363;28;20496;-56
2024/02/17 00:53:09;;;;;;;24.60;19.30;;;11.60;99.90;;;;;;5053861;28;20975;-56
2024/02/17 00:55:35;;;;;;;24.80;19.37;;;11.60;99.90;;;;;;5053769;28;20509;-56
2024/02/17 00:58:04;;;;;;;26.80;18.77;;;11.60;99.90;;;;;;5053533;28;20441;-57
2024/02/17 01:00:30;;;;;;;27.50;19.37;;;11.60;99.90;;;;;;5054134;28;20441;-57
2024/02/17 01:02:57;;;;;;;30.13;19.40;;;11.60;99.90;;;;;;5053939;28;20448;-56
2024/02/17 01:05:24;;;;;;;28.43;20.03;;;11.60;99.90;;;;;;5053843;28;20966;-56
2024/02/17 01:07:51;;;;;;;26.70;17.63;;;11.60;99.90;;;;;;5053891;28;20815;-57
2024/02/17 01:10:18;;;;;;;21.83;18.30;;;11.60;99.90;;;;;;5053711;28;20519;-57
2024/02/17 01:12:45;;;;;;;28.67;17.87;;;11.60;99.90;;;;;;5053336;28;20485;-56
2024/02/17 01:15:13;;;;;;;24.40;17.20;;;11.70;99.90;;;;;;5053925;28;20441;-56
2024/02/17 01:17:40;;;;;;;25.03;18.53;;;11.60;99.90;;;;;;5053439;28;20452;-57
2024/02/17 01:20:07;;;;;;;25.50;17.80;;;11.60;99.90;;;;;;5053565;28;20466;-57
2024/02/17 01:22:34;;;;;;;27.17;17.20;;;11.70;99.90;;;;;;5053853;28;20473;-57
2024/02/17 01:25:01;;;;;;;29.03;18.83;;;11.60;99.90;;;;;;5053833;28;20442;-56
2024/02/17 01:27:28;;;;;;;25.20;17.77;;;11.60;99.90;;;;;;5053814;28;20460;-56
2024/02/17 01:29:54;;;;;;;23.27;15.70;;;11.60;99.90;;;;;;5053981;28;20814;-56
2024/02/17 01:32:22;;;;;;;27.30;17.47;;;11.60;99.90;;;;;;5053486;28;21006;-56
2024/02/17 01:34:49;;;;;;;24.67;17.60;;;11.60;99.90;;;;;;5053716;28;20442;-57
2024/02/17 01:37:18;;;;;;;29.13;17.17;;;11.60;99.90;;;;;;5053605;28;20532;-56
2024/02/17 01:39:45;;;;;;;32.80;17.17;;;11.60;99.90;;;;;;5053316;28;20480;-56
2024/02/17 01:42:12;;;;;;;37.07;17.13;;;11.60;99.90;;;;;;5053614;28;20452;-56
2024/02/17 01:44:39;;;;;;;23.60;16.80;;;11.60;99.90;;;;;;5053472;28;20456;-56
2024/02/17 01:47:06;;;;;;;24.40;16.53;;;11.60;99.90;;;;;;5053524;28;20871;-56
2024/02/17 01:49:35;;;;;;;31.57;17.47;;;11.70;99.90;;;;;;5053378;28;20485;-56
2024/02/17 01:52:03;;;;;;;24.50;16.13;;;11.60;99.90;;;;;;5053506;28;20444;-56
2024/02/17 01:54:31;;;;;;;24.03;16.50;;;11.60;99.90;;;;;;5052759;28;20492;-56
2024/02/17 01:56:59;;;;;;;23.50;15.63;;;11.70;99.90;;;;;;5052979;28;20456;-56
2024/02/17 01:59:26;;;;;;;24.40;16.33;;;11.70;99.90;;;;;;5053344;28;20461;-56
2024/02/17 02:01:56;;;;;;;28.47;15.97;;;11.60;99.90;;;;;;5053209;28;20966;-56
2024/02/17 02:04:23;;;;;;;22.50;16.43;;;11.60;99.90;;;;;;5053099;28;20442;-56
2024/02/17 02:06:54;;;;;;;24.63;15.33;;;11.70;99.90;;;;;;5053224;28;20524;-56
2024/02/17 02:09:23;;;;;;;25.50;16.67;;;11.70;99.90;;;;;;5052925;28;20461;-56
2024/02/17 02:11:51;;;;;;;22.40;15.07;;;11.70;99.90;;;;;;5053229;28;20449;-56
2024/02/17 02:14:19;;;;;;;23.53;14.77;;;11.70;99.90;;;;;;5053155;28;20488;-56
2024/02/17 02:16:48;;;;;;;23.27;16.23;;;11.70;99.90;;;;;;5053137;28;20541;-57
2024/02/17 02:19:15;;;;;;;25.07;17.40;;;11.70;99.90;;;;;;5053811;28;20473;-56
2024/02/17 02:21:43;;;;;;;20.83;14.53;;;11.70;99.90;;;;;;5053250;28;20469;-56
2024/02/17 02:24:11;;;;;;;22.07;15.33;;;11.70;99.90;;;;;;5057070;28;20891;-56
2024/02/17 02:26:39;;;;;;;24.77;16.47;;;11.70;99.90;;;;;;5057140;28;20467;-56
2024/02/17 02:29:06;;;;;;;21.93;15.10;;;11.70;99.90;;;;;;5057224;28;20464;-56
2024/02/17 02:31:33;;;;;;;18.00;15.80;;;11.70;99.90;;;;;;5056800;28;20947;-56
2024/02/17 02:34:00;;;;;;;22.53;17.03;;;11.70;99.90;;;;;;5056908;28;20572;-56
2024/02/17 02:36:27;;;;;;;26.57;15.90;;;11.70;99.90;;;;;;5056852;28;20452;-56
2024/02/17 02:38:56;;;;;;;24.93;17.07;;;11.70;99.90;;;;;;5056839;28;20470;-56
2024/02/17 02:41:22;;;;;;;23.70;16.30;;;11.60;99.90;;;;;;5057045;28;20455;-56
2024/02/17 02:43:51;;;;;;;23.83;15.67;;;11.60;99.90;;;;;;5056722;28;20532;-56
2024/02/17 02:46:17;;;;;;;23.53;16.37;;;11.60;99.90;;;;;;5056699;28;20453;-56
2024/02/17 02:48:44;;;;;;;24.90;17.93;;;11.60;99.90;;;;;;5056765;28;20487;-56
2024/02/17 02:51:15;;;;;;;20.37;14.53;;;11.60;99.90;;;;;;5056640;28;20452;-56
2024/02/17 02:53:42;;;;;;;20.50;15.00;;;11.60;99.90;;;;;;5056101;28;20867;-56
2024/02/17 02:56:09;;;;;;;17.97;13.40;;;11.60;99.90;;;;;;5056645;28;20452;-56
2024/02/17 02:58:36;;;;;;;21.37;14.87;;;11.60;99.90;;;;;;5055975;28;20468;-56
2024/02/17 03:01:04;;;;;;;21.77;13.67;;;11.60;99.90;;;;;;5056363;28;20451;-56
2024/02/17 03:03:31;;;;;;;22.00;14.50;;;11.50;99.90;;;;;;5056149;28;20940;-56
2024/02/17 03:05:58;;;;;;;20.90;14.20;;;11.50;99.90;;;;;;5056411;28;20450;-56
2024/02/17 03:08:25;;;;;;;30.60;14.70;;;11.60;99.90;;;;;;5056287;28;20902;-56
2024/02/17 03:10:52;;;;;;;19.10;13.40;;;11.50;99.90;;;;;;5056242;28;20788;-56
2024/02/17 03:13:18;;;;;;;20.40;13.90;;;11.50;99.90;;;;;;5056163;28;20507;-54
2024/02/17 03:15:45;;;;;;;18.63;13.00;;;11.60;99.90;;;;;;5056153;28;20468;-55
2024/02/17 03:18:13;;;;;;;33.90;13.67;;;11.60;99.90;;;;;;5056046;28;20448;-55
2024/02/17 03:20:40;;;;;;;17.20;13.47;;;11.60;99.90;;;;;;5055767;28;20936;-55
2024/02/17 03:23:07;;;;;;;21.63;12.80;;;11.60;99.90;;;;;;5056070;28;20462;-54
2024/02/17 03:25:34;;;;;;;19.43;12.50;;;11.60;99.90;;;;;;5056096;28;20445;-55
2024/02/17 03:28:01;;;;;;;23.03;11.40;;;11.50;99.90;;;;;;5055895;28;20441;-55
2024/02/17 03:30:27;;;;;;;17.90;12.23;;;11.60;99.90;;;;;;5056742;28;20445;-55
2024/02/17 03:32:54;;;;;;;20.07;11.07;;;11.50;99.90;;;;;;5055472;28;20812;-54
2024/02/17 03:35:22;;;;;;;26.97;13.20;;;11.50;99.90;;;;;;5055115;28;20445;-55
2024/02/17 03:37:49;;;;;;;18.27;11.43;;;11.50;99.90;;;;;;5055558;28;20453;-55
2024/02/17 03:40:16;;;;;;;17.27;11.90;;;11.50;99.90;;;;;;5055652;28;20581;-54
2024/02/17 03:42:43;;;;;;;23.13;12.07;;;11.50;99.90;;;;;;5055797;28;20446;-55
2024/02/17 03:45:10;;;;;;;19.37;11.03;;;11.50;99.90;;;;;;5055727;28;20820;-55
2024/02/17 03:47:37;;;;;;;21.80;11.13;;;11.50;99.90;;;;;;5055862;28;20448;-54
2024/02/17 03:50:04;;;;;;;33.80;11.30;;;11.50;99.90;;;;;;5055537;28;20468;-54
2024/02/17 03:52:33;;;;;;;14.10;10.17;;;11.40;99.90;;;;;;5055707;28;20483;-55
2024/02/17 03:54:59;;;;;;;17.70;11.80;;;11.50;99.90;;;;;;5055048;28;20600;-55
2024/02/17 03:57:26;;;;;;;22.00;12.77;;;11.50;99.90;;;;;;5055568;28;20448;-54
2024/02/17 03:59:53;;;;;;;17.83;11.30;;;11.50;99.90;;;;;;5055401;28;20974;-55
2024/02/17 04:02:20;;;;;;;14.30;11.03;;;11.40;99.90;;;;;;5055424;28;20442;-55
2024/02/17 04:04:47;;;;;;;16.93;11.10;;;11.40;99.90;;;;;;5056360;28;20446;-55
2024/02/17 04:07:13;;;;;;;19.30;12.73;;;11.50;99.90;;;;;;5055718;28;20446;-55
2024/02/17 04:09:42;;;;;;;22.23;12.67;;;11.50;99.90;;;;;;5055054;28;20457;-56
2024/02/17 04:12:09;;;;;;;19.33;11.03;;;11.50;99.90;;;;;;5055211;28;20816;-55
2024/02/17 04:14:35;;;;;;;17.83;11.20;;;11.50;99.90;;;;;;5054772;28;21029;-55
2024/02/17 04:17:02;;;;;;;15.37;11.40;;;11.50;99.90;;;;;;5055258;28;20456;-54
2024/02/17 04:19:29;;;;;;;18.40;11.10;;;11.50;99.90;;;;;;5055033;28;20461;-55
2024/02/17 04:21:56;;;;;;;15.50;11.40;;;11.50;99.90;;;;;;5055011;28;20456;-55
2024/02/17 04:24:22;;;;;;;16.60;11.40;;;11.50;99.90;;;;;;5054908;28;20447;-55
2024/02/17 04:26:51;;;;;;;22.37;12.03;;;11.50;99.90;;;;;;5054919;28;20532;-54
2024/02/17 04:29:18;;;;;;;18.70;12.60;;;11.50;99.90;;;;;;5054717;28;20465;-54
2024/02/17 04:31:45;;;;;;;14.87;10.00;;;11.50;99.90;;;;;;5054791;28;20445;-55
2024/02/17 04:34:12;;;;;;;20.83;10.83;;;11.50;99.90;;;;;;5054672;28;20484;-55
2024/02/17 04:36:39;;;;;;;19.87;12.80;;;11.60;99.90;;;;;;5054477;28;20484;-55
2024/02/17 04:39:06;;;;;;;15.47;11.57;;;11.50;99.90;;;;;;5054700;28;20461;-55
2024/02/17 04:41:33;;;;;;;19.40;12.00;;;11.50;99.90;;;;;;5054502;28;21002;-54
2024/02/17 04:44:01;;;;;;;18.20;12.60;;;11.60;99.90;;;;;;5054750;28;20448;-54
2024/02/17 04:46:28;;;;;;;17.00;12.10;;;11.50;99.90;;;;;;5053712;28;20437;-55
2024/02/17 04:48:55;;;;;;;19.80;11.77;;;11.50;99.90;;;;;;5054782;28;20470;-54
2024/02/17 04:51:21;;;;;;;16.60;12.00;;;11.50;99.90;;;;;;5054757;28;20446;-54
2024/02/17 04:53:48;;;;;;;18.43;12.97;;;11.40;99.90;;;;;;5054674;28;20487;-55
2024/02/17 04:56:15;;;;;;;16.27;12.23;;;11.40;99.90;;;;;;5055263;28;20445;-54
2024/02/17 04:58:42;;;;;;;20.70;13.40;;;11.40;99.90;;;;;;5054373;28;20531;-55
2024/02/17 05:01:10;;;;;;;19.80;12.10;;;11.50;99.90;;;;;;5054524;28;20446;-54
2024/02/17 05:03:37;;;;;;;22.13;12.17;;;11.50;99.90;;;;;;5054414;28;20438;-55
2024/02/17 05:06:04;;;;;;;14.97;10.50;;;11.50;99.90;;;;;;5054408;28;20458;-55
2024/02/17 05:08:31;;;;;;;20.43;12.80;;;11.50;99.90;;;;;;5054249;28;20457;-55
2024/02/17 05:10:58;;;;;;;16.63;12.47;;;11.50;99.90;;;;;;5054296;28;20442;-55
2024/02/17 05:13:24;;;;;;;16.33;11.77;;;11.50;99.90;;;;;;5054332;28;20952;-55
2024/02/17 05:15:51;;;;;;;21.80;11.00;;;11.50;99.90;;;;;;5054361;28;20456;-55
2024/02/17 05:18:19;;;;;;;21.50;12.40;;;11.50;99.90;;;;;;5053808;28;20687;-55
2024/02/17 05:20:46;;;;;;;15.80;11.40;;;11.50;99.90;;;;;;5054444;28;20445;-54
2024/02/17 05:23:13;;;;;;;19.70;12.30;;;11.40;99.90;;;;;;5053964;28;20442;-54
2024/02/17 05:25:40;;;;;;;20.20;13.20;;;11.40;99.90;;;;;;5054444;28;20447;-55
2024/02/17 05:28:07;;;;;;;16.40;11.47;;;11.40;99.90;;;;;;5054040;28;20447;-55
2024/02/17 05:30:34;;;;;;;16.27;11.33;;;11.40;99.90;;;;;;5054496;28;20446;-54
2024/02/17 05:33:01;;;;;;;15.17;12.27;;;11.40;99.90;;;;;;5054370;28;20944;-55
2024/02/17 05:35:29;;;;;;;16.97;10.63;;;11.40;99.90;;;;;;5054676;28;20482;-54
2024/02/17 05:37:55;;;;;;;21.13;11.90;;;11.40;99.90;;;;;;5054487;28;20449;-55
2024/02/17 05:40:23;;;;;;;16.00;12.40;;;11.40;99.90;;;;;;5053848;28;20469;-55
2024/02/17 05:42:50;;;;;;;17.70;13.03;;;11.40;99.90;;;;;;5054551;28;20887;-54
2024/02/17 05:45:17;;;;;;;22.47;12.80;;;11.40;99.90;;;;;;5055766;28;20437;-55
2024/02/17 05:47:43;;;;;;;19.30;13.83;;;11.40;99.90;;;;;;5054878;28;20958;-55
2024/02/17 05:50:11;;;;;;;21.23;12.70;;;11.50;99.90;;;;;;5055293;28;20462;-55
2024/02/17 05:52:40;;;;;;;17.73;13.40;;;11.50;99.90;;;;;;5055806;28;20450;-55
2024/02/17 05:55:07;;;;;;;21.90;12.23;;;11.50;99.90;;;;;;5054985;28;20491;-55
2024/02/17 05:57:34;;;;;;;18.80;11.90;;;11.50;99.90;;;;;;5054374;28;20445;-55
2024/02/17 06:00:01;;;;;;;23.10;12.53;;;11.40;99.90;;;;;;5053826;28;20552;-55
2024/02/17 06:02:27;;;;;;;20.43;12.13;;;11.40;99.90;;;;;;5053583;28;20460;-54
2024/02/17 06:04:55;;;;;;;20.17;12.40;;;11.40;99.90;;;;;;5053382;28;20530;-55
2024/02/17 06:07:22;;;;;;;30.30;13.37;;;11.40;99.90;;;;;;5052880;28;20503;-54
2024/02/17 06:09:50;;;;;;;17.90;12.37;;;11.40;99.90;;;;;;5052751;28;20997;-55
2024/02/17 06:12:17;;;;;;;22.40;12.07;;;11.40;99.90;;;;;;5053377;28;20447;-55
2024/02/17 06:14:44;;;;;;;18.30;12.00;;;11.40;99.90;;;;;;5053053;28;20492;-55
2024/02/17 06:17:12;;;;;;;16.70;10.80;;;11.30;99.90;;;;;;5053199;28;20962;-55
2024/02/17 06:22:24;;;;;;;15.80;11.30;;;11.30;99.90;;;;;;5052844;28;20770;-54
2024/02/17 06:24:52;;;;;;;17.87;12.30;;;11.30;99.90;;;;;;5053045;28;20579;-55
2024/02/17 06:27:19;;;;;;;20.63;12.53;;;11.30;99.90;;;;;;5053058;28;20441;-55
2024/02/17 06:29:45;;;;;;;22.00;12.37;;;11.30;99.90;;;;;;5052789;28;20473;-55
2024/02/17 06:32:12;;;;;;;19.30;12.60;;;11.40;99.90;;;;;;5052933;28;20824;-55
2024/02/17 06:34:41;;;;;;;18.60;11.17;;;11.40;99.90;;;;;;5052876;28;20314;-54
2024/02/17 06:37:07;;;;;;;18.70;11.77;;;11.40;99.90;;;;;;5052968;28;20794;-54
2024/02/17 06:39:35;;;;;;;23.80;11.80;;;11.40;99.90;;;;;;5052846;28;20457;-55
2024/02/17 06:42:03;;;;;;;14.23;11.30;;;11.40;99.90;;;;;;5052860;28;20858;-54
2024/02/17 06:44:30;;;;;;;19.53;12.73;;;11.40;99.90;;;;;;5052953;28;20441;-54
2024/02/17 06:46:57;;;;;;;19.87;12.93;;;11.40;99.90;;;;;;5053569;28;20449;-54
2024/02/17 06:49:25;;;;;;;18.40;11.83;;;11.40;99.90;;;;;;5052661;28;20571;-55
2024/02/17 06:51:51;;;;;;;21.37;12.23;;;11.40;99.90;;;;;;5053441;28;20457;-55
2024/02/17 06:54:18;;;;;;;16.73;10.23;;;11.40;99.90;;;;;;5052557;28;20489;-55
2024/02/17 06:56:45;;;;;;;22.90;13.50;;;11.50;99.90;;;;;;5052882;28;20445;-54
2024/02/17 06:59:13;;;;;;;21.93;12.63;;;11.40;99.90;;;;;;5053241;28;20476;-54
2024/02/17 07:01:40;;;;;;;24.33;11.50;;;11.40;99.90;;;;;;5052701;28;20540;-55
2024/02/17 07:04:08;;;;;;;25.03;10.53;;;11.40;99.90;;;;;;5052647;28;20438;-55
2024/02/17 07:06:35;;;;;;;16.00;11.40;;;11.40;99.90;;;;;;5052662;28;20563;-55
2024/02/17 07:09:02;;;;;;;19.90;11.37;;;11.40;99.90;;;;;;5052989;28;20549;-55
2024/02/17 07:11:29;;;;;;;16.90;10.20;;;11.40;99.90;;;;;;5056202;28;20503;-55
2024/02/17 07:13:55;;;;;;;17.90;11.10;;;11.40;99.90;;;;;;5055985;28;20441;-55
2024/02/17 07:16:23;;;;;;;15.23;12.60;;;11.40;99.90;;;;;;5056137;28;20452;-55
2024/02/17 07:18:50;;;;;;;16.57;10.80;;;11.40;99.90;;;;;;5055747;28;20967;-55
2024/02/17 07:21:17;;;;;;;17.63;11.40;;;11.40;99.90;;;;;;5056092;28;20450;-55
2024/02/17 07:23:44;;;;;;;18.87;10.00;;;11.40;99.90;;;;;;5056031;28;20454;-55
2024/02/17 07:26:11;;;;;;;12.77;10.50;;;11.40;99.90;;;;;;5055860;28;20445;-55
2024/02/17 07:28:38;;;;;;;19.20;10.97;;;11.40;99.90;;;;;;5055553;28;20471;-55
2024/02/17 07:31:05;;;;;;;12.10;9.57;;;11.40;99.90;;;;;;5055845;28;20452;-55
2024/02/17 07:33:33;;;;;;;13.47;9.47;;;11.50;99.90;;;;;;5055793;28;20448;-55
2024/02/17 07:35:59;;;;;;;17.30;10.70;;;11.50;99.90;;;;;;5055857;28;20481;-55
2024/02/17 07:38:26;;;;;;;17.77;10.90;;;11.50;99.90;;;;;;5055742;28;20495;-55
2024/02/17 07:40:53;;;;;;;16.40;10.90;;;11.50;99.90;;;;;;5055774;28;20555;-55
2024/02/17 07:43:20;;;;;;;14.70;9.33;;;11.50;99.90;;;;;;5055634;28;20471;-55
2024/02/17 07:45:48;;;;;;;17.93;10.30;;;11.50;99.90;;;;;;5055586;28;20441;-56
2024/02/17 07:48:15;;;;;;;15.60;10.80;;;11.40;99.90;;;;;;5055440;28;20546;-55
2024/02/17 07:50:44;;;;;;;14.00;9.93;;;11.50;99.90;;;;;;5055379;28;20533;-55
2024/02/17 07:53:11;;;;;;;20.33;10.10;;;11.40;99.90;;;;;;5055719;28;20523;-55
2024/02/17 07:55:37;;;;;;;22.40;10.47;;;11.50;99.90;;;;;;5055338;28;20473;-55
2024/02/17 07:58:08;;;;;;;15.60;9.90;;;11.50;99.90;;;;;;5056159;28;20441;-56
2024/02/17 08:00:35;;;;;;;18.10;10.17;;;11.50;99.90;;;;;;5055399;28;20799;-55
2024/02/17 08:03:01;;;;;;;16.97;10.20;;;11.50;99.90;;;;;;5055268;28;20827;-55
2024/02/17 08:05:28;;;;;;;17.77;10.67;;;11.50;99.90;;;;;;5055192;28;20438;-55
2024/02/17 08:07:56;;;;;;;16.03;10.70;;;11.40;99.90;;;;;;5054769;28;20819;-55
2024/02/17 08:10:23;;;;;;;18.83;9.90;;;11.40;99.90;;;;;;5055079;28;20465;-55
2024/02/17 08:12:50;;;;;;;17.00;10.50;;;11.40;99.90;;;;;;5056178;28;20457;-54
2024/02/17 08:15:17;;;;;;;19.93;10.10;;;11.40;99.90;;;;;;5056012;28;20481;-55
2024/02/17 08:17:44;;;;;;;16.63;9.63;;;11.50;99.90;;;;;;5055302;28;20449;-54
2024/02/17 08:20:11;;;;;;;15.13;9.10;;;11.50;99.90;;;;;;5055025;28;20469;-54
2024/02/17 08:22:38;;;;;;;18.90;9.90;;;11.50;99.90;;;;;;5054841;28;20507;-54
2024/02/17 08:25:09;;;;;;;18.80;8.80;;;11.50;99.90;;;;;;5054996;28;20901;-55
2024/02/17 08:27:36;;;;;;;15.53;9.73;;;11.60;99.90;;;;;;5054945;28;20483;-55
2024/02/17 08:30:03;;;;;;;15.90;8.90;;;11.50;99.90;;;;;;5055046;28;20468;-55
2024/02/17 08:32:32;;;;;;;16.63;9.00;;;11.50;99.90;;;;;;5054926;28;20831;-55
2024/02/17 08:34:59;;;;;;;17.17;9.70;;;11.60;99.90;;;;;;5054407;28;21003;-55
2024/02/17 08:37:25;;;;;;;16.30;8.80;;;11.60;99.90;;;;;;5054513;28;20940;-55
2024/02/17 08:39:52;;;;;;;14.30;8.63;;;11.60;99.90;;;;;;5054448;28;20469;-55
2024/02/17 08:42:20;;;;;;;18.60;9.30;;;11.60;99.90;;;;;;5054331;28;20448;-55
2024/02/17 08:44:52;;;;;;;16.63;9.00;;;11.60;99.90;;;;;;5054253;28;20940;-54
2024/02/17 08:47:19;;;;;;;20.77;10.23;;;11.60;99.90;;;;;;5054274;28;20426;-55
2024/02/17 08:49:46;;;;;;;20.00;11.80;;;11.60;99.90;;;;;;5054325;28;20540;-55
2024/02/17 08:52:13;;;;;;;20.30;11.13;;;11.60;99.90;;;;;;5054290;28;20822;-55
2024/02/17 08:54:40;;;;;;;15.30;9.43;;;11.60;99.90;;;;;;5054117;28;20479;-55
2024/02/17 08:57:06;;;;;;;19.40;10.20;;;11.60;99.90;;;;;;5055237;28;20462;-55
2024/02/17 08:59:36;;;;;;;17.83;9.53;;;11.70;99.90;;;;;;5053900;28;21041;-55
2024/02/17 09:02:03;;;;;;;27.30;9.87;;;11.70;99.90;;;;;;5054304;28;20449;-54
2024/02/17 09:04:30;;;;;;;18.77;9.80;;;11.70;99.90;;;;;;5054283;28;20463;-55
2024/02/17 09:06:58;;;;;;;16.33;8.40;;;11.70;99.90;;;;;;5054051;28;20447;-55
2024/02/17 09:09:27;;;;;;;17.13;8.77;;;11.70;99.90;;;;;;5054023;28;20466;-55
2024/02/17 09:11:54;;;;;;;16.23;7.73;;;11.70;99.90;;;;;;5054137;28;20453;-55
2024/02/17 09:14:21;;;;;;;17.63;9.23;;;11.70;99.90;;;;;;5053619;28;20503;-55
2024/02/17 09:16:49;;;;;;;17.33;8.83;;;11.80;99.90;;;;;;5053421;28;20480;-55
2024/02/17 09:19:16;;;;;;;21.47;8.97;;;11.80;99.90;;;;;;5053715;28;21004;-55
2024/02/17 09:21:43;;;;;;;18.07;8.73;;;11.80;99.90;;;;;;5054135;28;20820;-55
2024/02/17 09:24:10;;;;;;;17.40;8.60;;;11.80;99.90;;;;;;5053902;28;20445;-56
2024/02/17 09:26:37;;;;;;;22.07;8.93;;;11.80;99.90;;;;;;5053585;28;20442;-55
2024/02/17 09:29:04;;;;;;;13.73;7.73;;;11.80;99.90;;;;;;5053654;28;20470;-55
2024/02/17 09:31:30;;;;;;;13.83;8.10;;;11.90;99.90;;;;;;5053287;28;20449;-55
2024/02/17 09:33:59;;;;;;;18.50;7.80;;;11.80;99.90;;;;;;5053454;28;20446;-55
2024/02/17 09:36:26;;;;;;;19.37;9.47;;;11.90;99.90;;;;;;5053536;28;20486;-55
2024/02/17 09:38:53;;;;;;;12.27;8.30;;;11.90;99.90;;;;;;5053570;28;20501;-55
2024/02/17 09:41:20;;;;;;;14.97;8.47;;;11.90;99.90;;;;;;5053566;28;20445;-55
2024/02/17 09:43:47;;;;;;;18.60;8.87;;;11.90;99.90;;;;;;5053513;28;20445;-55
2024/02/17 09:46:14;;;;;;;16.53;10.03;;;11.90;99.90;;;;;;5053122;28;20450;-55
2024/02/17 09:48:41;;;;;;;19.43;9.30;;;11.90;99.90;;;;;;5053288;28;20807;-55
2024/02/17 09:51:10;;;;;;;17.37;8.93;;;11.90;99.90;;;;;;5053036;28;20479;-55
2024/02/17 09:53:38;;;;;;;17.83;8.30;;;11.80;99.90;;;;;;5052980;28;20973;-55
2024/02/17 09:56:06;;;;;;;16.33;8.30;;;11.80;99.90;;;;;;5053299;28;20576;-55
2024/02/17 09:58:33;;;;;;;14.73;8.00;;;11.80;99.90;;;;;;5053150;28;20465;-55
2024/02/17 10:01:00;;;;;;;18.47;8.47;;;11.80;99.90;;;;;;5053463;28;20823;-55
2024/02/17 10:03:27;;;;;;;12.80;9.30;;;11.90;99.90;;;;;;5053376;28;20545;-55
2024/02/17 10:05:54;;;;;;;19.47;9.60;;;12.00;99.90;;;;;;5053661;28;20442;-55
2024/02/17 10:08:25;;;;;;;18.63;8.33;;;12.00;99.90;;;;;;5053717;28;20438;-55
2024/02/17 10:10:57;;;;;;;18.57;9.40;;;12.10;99.90;;;;;;5053372;28;20436;-55
2024/02/17 10:13:25;;;;;;;16.43;7.90;;;12.10;99.90;;;;;;5053242;28;20430;-55
2024/02/17 10:15:52;;;;;;;16.87;8.90;;;12.10;99.90;;;;;;5053272;28;20488;-55
2024/02/17 10:18:19;;;;;;;15.60;7.57;;;12.10;99.90;;;;;;5053153;28;20445;-55
2024/02/17 10:20:46;;;;;;;21.00;9.00;;;12.10;99.90;;;;;;5053178;28;20441;-54
2024/02/17 10:23:13;;;;;;;17.80;8.53;;;12.10;99.90;;;;;;5052890;28;20962;-55
2024/02/17 10:25:42;;;;;;;17.50;8.70;;;12.20;99.90;;;;;;5053132;28;20497;-55
2024/02/17 10:28:09;;;;;;;16.37;7.30;;;12.20;99.90;;;;;;5053166;28;20536;-55
2024/02/17 10:30:36;;;;;;;14.53;7.07;;;12.30;99.90;;;;;;5053188;28;20441;-55
2024/02/17 10:33:09;;;;;;;16.03;8.17;;;12.30;99.90;;;;;;5053134;28;20450;-55
2024/02/17 10:35:37;;;;;;;19.27;7.60;;;12.30;99.90;;;;;;5053038;28;20465;-55
2024/02/17 10:38:08;;;;;;;12.10;6.87;;;12.30;99.90;;;;;;5052680;28;20967;-55
2024/02/17 10:40:36;;;;;;;16.13;7.67;;;12.30;99.90;;;;;;5053799;28;20441;-55
2024/02/17 10:43:04;;;;;;;18.20;8.07;;;12.30;99.90;;;;;;5052894;28;20447;-55
2024/02/17 10:45:31;;;;;;;13.33;6.73;;;12.30;99.90;;;;;;5055810;28;20446;-55
2024/02/17 10:48:03;;;;;;;19.40;7.63;;;12.30;99.90;;;;;;5056455;28;20824;-56
2024/02/17 10:50:30;;;;;;;15.83;6.70;;;12.30;99.90;;;;;;5056674;28;20436;-57
2024/02/17 10:53:04;;;;;;;19.83;8.43;;;12.40;99.90;;;;;;5056493;28;20865;-56
2024/02/17 10:55:36;;;;;;;18.80;6.87;;;12.40;99.90;;;;;;5056695;28;20465;-56
2024/02/17 10:58:10;;;;;;;11.50;6.33;;;12.40;99.90;;;;;;5056749;28;20435;-56
2024/02/17 11:00:41;;;;;;;16.87;7.47;;;12.40;99.90;;;;;;5056600;28;20475;-56
2024/02/17 11:03:09;;;;;;;15.63;6.57;;;12.40;99.90;;;;;;5056176;28;20789;-56
2024/02/17 11:05:38;;;;;;;17.73;7.27;;;12.40;99.90;;;;;;5056493;28;20442;-56
2024/02/17 11:08:06;;;;;;;16.97;7.97;;;12.40;99.90;;;;;;5056029;28;20948;-57
2024/02/17 11:10:33;;;;;;;14.10;7.00;;;12.40;99.90;;;;;;5056289;28;20452;-56
2024/02/17 11:13:01;;;;;;;9.87;7.37;;;12.50;99.90;;;;;;5056303;28;20445;-56
2024/02/17 11:15:30;;;;;;;17.07;6.60;;;12.50;99.90;;;;;;5056057;28;20496;-56
2024/02/17 11:17:59;;;;;;;11.57;7.20;;;12.50;99.90;;;;;;5056248;28;20451;-56
2024/02/17 11:20:27;;;;;;;14.00;7.13;;;12.50;99.90;;;;;;5056103;28;20556;-56
2024/02/17 11:22:58;;;;;;;17.67;7.63;;;12.60;99.90;;;;;;5056147;28;20446;-56
2024/02/17 11:25:30;;;;;;;18.90;7.20;;;12.60;99.90;;;;;;5056063;28;20871;-56
2024/02/17 11:27:57;;;;;;;18.03;7.83;;;12.60;99.90;;;;;;5056217;28;20443;-56
2024/02/17 11:30:24;;;;;;;18.17;6.50;;;12.60;99.90;;;;;;5056397;28;20552;-55
2024/02/17 11:32:59;;;;;;;21.80;8.27;;;12.70;99.90;;;;;;5056320;28;20496;-55
2024/02/17 11:35:27;;;;;;;11.53;7.10;;;12.70;99.90;;;;;;5055993;28;20807;-56
2024/02/17 11:37:56;;;;;;;16.20;6.67;;;12.80;99.90;;;;;;5055918;28;20950;-56
2024/02/17 11:40:23;;;;;;;18.57;7.30;;;12.90;99.90;;;;;;5055959;28;20470;-56
2024/02/17 11:42:54;;;;;;;16.27;7.50;;;13.00;99.90;;;;;;5055755;28;20456;-56
2024/02/17 11:45:21;;;;;;;16.20;6.93;;;13.10;99.90;;;;;;5055414;28;20865;-56
2024/02/17 11:47:50;;;;;;;17.33;7.33;;;13.10;99.90;;;;;;5055692;28;20503;-56
2024/02/17 11:50:18;;;;;;;12.50;7.30;;;13.10;99.90;;;;;;5055677;28;20840;-56
2024/02/17 11:52:45;;;;;;;15.17;5.90;;;13.10;99.90;;;;;;5055506;28;20441;-56
2024/02/17 11:55:13;;;;;;;14.87;6.60;;;13.20;99.90;;;;;;5054840;28;20458;-56
2024/02/17 11:57:40;;;;;;;14.13;7.07;;;13.30;99.90;;;;;;5055376;28;20485;-56
2024/02/17 12:00:12;;;;;;;13.10;6.20;;;13.30;99.90;;;;;;5055419;28;20505;-56
2024/02/17 12:02:40;;;;;;;11.20;6.97;;;13.30;99.90;;;;;;5055333;28;20477;-56
2024/02/17 12:05:08;;;;;;;17.20;7.70;;;13.40;99.90;;;;;;5055543;28;20445;-56
2024/02/17 12:07:36;;;;;;;18.37;6.57;;;13.40;99.90;;;;;;5064076;28;20445;-57
2024/02/17 12:10:04;;;;;;;15.10;7.20;;;13.50;99.90;;;;;;5075139;28;20467;-56
2024/02/17 12:12:31;;;;;;;19.57;8.47;;;13.40;99.90;;;;;;5073416;28;20447;-56
2024/02/17 12:14:57;;;;;;;14.40;7.60;;;13.30;99.90;;;;;;5075047;28;20451;-56
2024/02/17 12:17:25;;;;;;;13.77;6.67;;;13.40;99.90;;;;;;5074710;28;20483;-56
2024/02/17 12:19:52;;;;;;;15.83;6.90;;;13.50;99.90;;;;;;5074936;28;20464;-56
2024/02/17 12:22:19;;;;;;;16.67;7.60;;;13.60;99.90;;;;;;5075077;28;20471;-56
2024/02/17 12:24:47;;;;;;;12.47;6.87;;;13.60;99.90;;;;;;5074633;28;20452;-56
2024/02/17 12:27:14;;;;;;;17.20;7.23;;;13.60;99.90;;;;;;5074942;28;20443;-56
2024/02/17 12:29:49;;;;;;;12.80;7.10;;;13.70;99.90;;;;;;5074737;28;20475;-56
2024/02/17 12:32:20;;;;;;;16.20;7.10;;;13.80;99.90;;;;;;5074631;28;20933;-56
2024/02/17 12:34:47;;;;;;;14.90;7.13;;;13.80;99.90;;;;;;5074592;28;20445;-56